| time (UTC) | temp F | wind direction | speed MPH | gust MPH | rain 1hr in | rain 24hr in | rain mn in | humidity % | barometer mb |
| 20260906090008 | 73 | 94 | 0.0 | 0.0 | 0.00 | 0.00 | 0.00 | 95 | 1012.9 |
| 20260906084513 | 73 | 94 | 0.0 | 0.0 | 0.00 | 0.00 | 0.00 | 95 | 1012.7 |
| 20260906083017 | 73 | 94 | 0.0 | 0.0 | 0.00 | 0.00 | 0.00 | 95 | 1012.5 |
| 20260906081526 | 74 | 94 | 0.0 | 0.0 | 0.00 | 0.00 | 0.00 | 95 | 1012.5 |
| 20260906080030 | 74 | 94 | 0.0 | 1.0 | 0.00 | 0.00 | 0.00 | 95 | 1012.8 |
| 20260906074510 | 74 | 94 | 0.0 | 1.0 | 0.00 | 0.00 | 0.00 | 95 | 1012.8 |
| 20260906073012 | 74 | 94 | 0.0 | 0.0 | 0.00 | 0.00 | 0.00 | 95 | 1013.0 |
| 20260906071521 | 74 | 94 | 0.0 | 0.0 | 0.00 | 0.00 | 0.00 | 95 | 1013.0 |
| 20260906070027 | 74 | 94 | 0.0 | 0.0 | 0.00 | 0.00 | 0.00 | 95 | 1012.6 |
| 20260906064535 | 74 | 94 | 0.0 | 0.0 | 0.00 | 0.00 | 0.00 | 94 | 1012.6 |
| 20260906063012 | 74 | 94 | 0.0 | 0.0 | 0.00 | 0.00 | 0.00 | 94 | 1012.6 |
| 20260906061522 | 74 | 94 | 0.0 | 0.0 | 0.00 | 0.00 | 0.00 | 94 | 1012.7 |
| 20260906060017 | 75 | 94 | 0.0 | 0.0 | 0.00 | 0.00 | 0.00 | 94 | 1013.1 |
| 20260906054536 | 75 | 94 | 0.0 | 0.0 | 0.00 | 0.00 | 0.00 | 94 | 1013.1 |
| 20260906053029 | 75 | 94 | 0.0 | 0.0 | 0.00 | 0.00 | 0.00 | 94 | 1013.0 |
| 20260906051510 | 75 | 94 | 0.0 | 0.0 | 0.00 | 0.00 | 0.00 | 94 | 1013.0 |
| 20260906050014 | 75 | 94 | 0.0 | 0.0 | 0.00 | 0.00 | 0.00 | 94 | 1013.1 |
| 20260906044523 | 75 | 94 | 0.0 | 0.0 | 0.00 | 0.00 | 0.00 | 94 | 1013.2 |
| 20260906043033 | 75 | 94 | 0.0 | 0.0 | 0.00 | 0.00 | 0.00 | 94 | 1013.2 |
| 20260906041530 | 76 | 94 | 0.0 | 0.0 | 0.00 | 0.00 | 0.00 | 93 | 1013.0 |
| 20260906040012 | 76 | 94 | 0.0 | 0.0 | 0.00 | 0.00 | 0.00 | 93 | 1013.0 |
| 20260906034516 | 75 | 94 | 0.0 | 0.0 | 0.00 | 0.00 | 0.00 | 93 | 1013.2 |
| 20260906033025 | 76 | 94 | 0.0 | 0.0 | 0.00 | 0.00 | 0.00 | 92 | 1013.2 |
| 20260906031528 | 76 | 94 | 0.0 | 0.0 | 0.00 | 0.00 | 0.00 | 93 | 1013.2 |
| 20260906030032 | 77 | 94 | 0.0 | 0.0 | 0.00 | 0.00 | 0.00 | 93 | 1013.3 |
| 20260906024514 | 77 | 94 | 0.0 | 0.0 | 0.00 | 0.00 | 0.00 | 92 | 1013.3 |
| 20260906023018 | 77 | 94 | 0.0 | 0.0 | 0.00 | 0.00 | 0.00 | 91 | 1013.0 |
| 20260906021536 | 78 | 94 | 0.0 | 0.0 | 0.00 | 0.00 | 0.00 | 91 | 1012.9 |
| 20260906020034 | 78 | 94 | 0.0 | 0.0 | 0.00 | 0.00 | 0.00 | 90 | 1012.6 |
| 20260906014541 | 78 | 94 | 0.0 | 0.0 | 0.00 | 0.00 | 0.00 | 90 | 1012.2 |
| 20260906013042 | 79 | 94 | 0.0 | 0.0 | 0.00 | 0.00 | 0.00 | 89 | 1011.8 |
| 20260906011518 | 79 | 94 | 0.0 | 0.0 | 0.00 | 0.00 | 0.00 | 88 | 1011.8 |
| 20260906010028 | 80 | 94 | 0.0 | 0.0 | 0.00 | 0.00 | 0.00 | 87 | 1011.9 |
| 20260906004529 | 81 | 94 | 0.0 | 0.0 | 0.00 | 0.00 | 0.00 | 85 | 1011.8 |
| 20260906003034 | 82 | 94 | 0.0 | 0.0 | 0.00 | 0.00 | 0.00 | 83 | 1011.9 |
| 20260906001516 | 83 | 94 | 0.0 | 0.0 | 0.00 | 0.00 | 0.00 | 80 | 1011.7 |
| 20260906000015 | 84 | 94 | 0.0 | 3.0 | 0.00 | 0.00 | 0.00 | 77 | 1011.7 |
| 20260905234515 | 85 | 71 | 0.0 | 3.0 | 0.00 | 0.00 | 0.00 | 74 | 1011.7 |
| 20260905233012 | 86 | 90 | 0.0 | 6.0 | 0.00 | 0.00 | 0.00 | 73 | 1011.8 |
| 20260905231510 | 87 | 78 | 1.0 | 3.0 | 0.00 | 0.00 | 0.00 | 75 | 1011.8 |
| 20260905230015 | 88 | 94 | 1.0 | 7.0 | 0.00 | 0.00 | 0.00 | 75 | 1011.7 |
| 20260905224517 | 88 | 23 | 2.0 | 7.0 | 0.00 | 0.00 | 0.00 | 74 | 1011.8 |
| 20260905223006 | 89 | 67 | 2.0 | 8.0 | 0.00 | 0.00 | 0.00 | 74 | 1011.7 |
| 20260905221509 | 90 | 99 | 4.0 | 7.0 | 0.00 | 0.00 | 0.00 | 70 | 1011.7 |
| 20260905220014 | 93 | 325 | 3.0 | 5.0 | 0.00 | 0.00 | 0.00 | 67 | 1011.6 |
| 20260905214519 | 94 | 118 | 2.0 | 5.0 | 0.00 | 0.00 | 0.00 | 64 | 1011.7 |
| 20260905213019 | 94 | 19 | 2.0 | 7.0 | 0.00 | 0.00 | 0.00 | 63 | 1011.7 |
| 20260905211506 | 95 | 125 | 2.0 | 8.0 | 0.00 | 0.00 | 0.00 | 62 | 1011.8 |
| 20260905210008 | 95 | 212 | 3.0 | 6.0 | 0.00 | 0.00 | 0.00 | 65 | 1011.7 |
| 20260905204513 | 96 | 289 | 3.0 | 6.0 | 0.00 | 0.00 | 0.00 | 62 | 1011.8 |
| 20260905203016 | 96 | 350 | 2.0 | 5.0 | 0.00 | 0.00 | 0.00 | 62 | 1012.0 |
| 20260905201520 | 96 | 113 | 3.0 | 7.0 | 0.00 | 0.00 | 0.00 | 57 | 1011.9 |
| 20260905200004 | 95 | 130 | 2.0 | 9.0 | 0.00 | 0.00 | 0.00 | 58 | 1012.0 |
| 20260905194507 | 96 | 112 | 1.0 | 6.0 | 0.00 | 0.00 | 0.00 | 58 | 1011.9 |
| 20260905193012 | 96 | 78 | 3.0 | 8.0 | 0.00 | 0.00 | 0.00 | 58 | 1012.1 |
| 20260905191517 | 96 | 342 | 2.0 | 4.0 | 0.00 | 0.00 | 0.00 | 60 | 1012.5 |
| 20260905190031 | 98 | 18 | 3.0 | 9.0 | 0.00 | 0.00 | 0.00 | 54 | 1012.6 |
| 20260905184531 | 98 | 104 | 1.0 | 7.0 | 0.00 | 0.00 | 0.00 | 46 | 1012.7 |
| 20260905183010 | 97 | 214 | 1.0 | 6.0 | 0.00 | 0.00 | 0.00 | 49 | 1012.9 |
| 20260905181516 | 97 | 321 | 3.0 | 9.0 | 0.00 | 0.00 | 0.00 | 54 | 1013.2 |
| 20260905180025 | 96 | 165 | 1.0 | 8.0 | 0.00 | 0.00 | 0.00 | 53 | 1013.4 |
| 20260905174528 | 96 | 209 | 2.0 | 6.0 | 0.00 | 0.00 | 0.00 | 54 | 1013.6 |
| 20260905173027 | 96 | 230 | 4.0 | 6.0 | 0.00 | 0.00 | 0.00 | 54 | 1013.8 |
| 20260905171507 | 95 | 144 | 2.0 | 8.0 | 0.00 | 0.00 | 0.00 | 58 | 1014.0 |
| 20260905170016 | 95 | 248 | 3.0 | 5.0 | 0.00 | 0.00 | 0.00 | 55 | 1014.2 |
| 20260905164528 | 95 | 146 | 1.0 | 5.0 | 0.00 | 0.00 | 0.00 | 59 | 1014.4 |
| 20260905163028 | 94 | 159 | 1.0 | 3.0 | 0.00 | 0.00 | 0.00 | 59 | 1014.6 |
| 20260905161527 | 93 | 186 | 2.0 | 5.0 | 0.00 | 0.00 | 0.00 | 62 | 1014.6 |
| 20260905160017 | 92 | 108 | 1.0 | 5.0 | 0.00 | 0.00 | 0.00 | 64 | 1014.8 |
| 20260905154514 | 91 | 207 | 1.0 | 5.0 | 0.00 | 0.00 | 0.00 | 66 | 1014.9 |
| 20260905153030 | 90 | 221 | 1.0 | 5.0 | 0.00 | 0.00 | 0.00 | 67 | 1015.0 |
| 20260905151530 | 89 | 146 | 1.0 | 3.0 | 0.00 | 0.00 | 0.00 | 72 | 1015.1 |
| 20260905150009 | 87 | 169 | 1.0 | 3.0 | 0.00 | 0.00 | 0.00 | 74 | 1015.1 |
| 20260905144521 | 86 | 35 | 0.0 | 2.0 | 0.00 | 0.00 | 0.00 | 79 | 1014.8 |
| 20260905143020 | 84 | 127 | 0.0 | 2.0 | 0.00 | 0.00 | 0.00 | 83 | 1015.0 |
| 20260905141526 | 82 | 148 | 0.0 | 2.0 | 0.00 | 0.00 | 0.00 | 86 | 1015.1 |
| 20260905140029 | 81 | 241 | 2.0 | 3.0 | 0.00 | 0.00 | 0.00 | 86 | 1015.1 |
| 20260905134506 | 79 | 310 | 0.0 | 1.0 | 0.00 | 0.00 | 0.00 | 90 | 1015.2 |
| 20260905133015 | 78 | 310 | 0.0 | 0.0 | 0.00 | 0.00 | 0.00 | 93 | 1015.1 |
| 20260905131518 | 76 | 310 | 0.0 | 0.0 | 0.00 | 0.00 | 0.00 | 94 | 1015.1 |
| 20260905130031 | 75 | 310 | 0.0 | 0.0 | 0.00 | 0.00 | 0.00 | 93 | 1015.1 |
| 20260905124531 | 77 | 310 | 0.0 | 0.0 | 0.00 | 0.00 | 0.00 | 95 | 1015.2 |
| 20260905123008 | 74 | 310 | 0.0 | 0.0 | 0.00 | 0.00 | 0.00 | 95 | 1015.2 |
| 20260905121514 | 72 | 310 | 0.0 | 0.0 | 0.00 | 0.00 | 0.00 | 96 | 1015.1 |
| 20260905120022 | 71 | 310 | 0.0 | 0.0 | 0.00 | 0.00 | 0.00 | 96 | 1014.9 |
| 20260905114527 | 71 | 310 | 0.0 | 0.0 | 0.00 | 0.00 | 0.00 | 96 | 1014.9 |
| 20260905113030 | 71 | 310 | 0.0 | 0.0 | 0.00 | 0.00 | 0.00 | 95 | 1014.7 |
| 20260905111516 | 71 | 310 | 0.0 | 0.0 | 0.00 | 0.00 | 0.00 | 95 | 1014.6 |
| 20260905110016 | 71 | 310 | 0.0 | 0.0 | 0.00 | 0.00 | 0.00 | 95 | 1014.5 |
| 20260905104522 | 71 | 310 | 0.0 | 0.0 | 0.00 | 0.00 | 0.00 | 95 | 1014.4 |
| 20260905103025 | 71 | 310 | 0.0 | 0.0 | 0.00 | 0.00 | 0.00 | 95 | 1014.5 |
| 20260905101531 | 71 | 310 | 0.0 | 0.0 | 0.00 | 0.00 | 0.00 | 95 | 1014.5 |
| 20260905100012 | 71 | 310 | 0.0 | 0.0 | 0.00 | 0.00 | 0.00 | 95 | 1014.7 |
| 20260905094518 | 71 | 310 | 0.0 | 0.0 | 0.00 | 0.00 | 0.00 | 95 | 1014.6 |
| 20260905093023 | 72 | 310 | 0.0 | 0.0 | 0.00 | 0.00 | 0.00 | 95 | 1014.6 |
| 20260905091526 | 72 | 310 | 0.0 | 0.0 | 0.00 | 0.00 | 0.00 | 95 | 1014.6 |